createdAt,value
2018-06-09T00:00:49.645Z,2.10
2018-06-09T00:03:18.005Z,2.30
2018-06-09T00:05:46.298Z,2.00
2018-06-09T00:08:14.665Z,1.50
2018-06-09T00:10:42.945Z,2.00
2018-06-09T00:13:11.226Z,2.00
2018-06-09T00:15:39.702Z,1.80
2018-06-09T00:18:07.959Z,2.00
2018-06-09T00:20:36.203Z,2.43
2018-06-09T00:23:04.514Z,2.07
2018-06-09T00:25:32.791Z,2.07
2018-06-09T00:28:01.102Z,2.10
2018-06-09T00:30:29.372Z,2.10
2018-06-09T00:32:57.827Z,2.40
2018-06-09T00:35:26.223Z,2.13
2018-06-09T00:37:54.597Z,2.00
2018-06-09T00:40:22.958Z,1.93
2018-06-09T00:42:51.125Z,2.00
2018-06-09T00:45:19.529Z,2.03
2018-06-09T00:47:47.851Z,1.67
2018-06-09T00:50:16.182Z,2.23
2018-06-09T00:52:44.459Z,2.70
2018-06-09T00:55:12.939Z,2.37
2018-06-09T00:57:41.420Z,2.07
2018-06-09T01:00:09.798Z,2.30
2018-06-09T01:02:38.351Z,2.00
2018-06-09T01:05:06.632Z,1.83
2018-06-09T01:07:34.919Z,1.87
2018-06-09T01:10:03.186Z,1.80
2018-06-09T01:12:31.586Z,2.10
2018-06-09T01:15:00.170Z,1.83
2018-06-09T01:17:28.629Z,1.70
2018-06-09T01:19:56.924Z,1.60
2018-06-09T01:22:25.302Z,2.13
2018-06-09T01:24:53.656Z,1.70
2018-06-09T01:27:22.040Z,2.10
2018-06-09T01:29:50.341Z,1.90
2018-06-09T01:32:18.816Z,1.57
2018-06-09T01:34:47.271Z,1.73
2018-06-09T01:37:15.505Z,1.87
2018-06-09T01:39:43.829Z,1.67
2018-06-09T01:42:12.019Z,1.70
2018-06-09T01:44:40.603Z,1.93
2018-06-09T01:47:08.971Z,1.77
2018-06-09T01:49:37.505Z,1.60
2018-06-09T01:52:05.829Z,1.30
2018-06-09T01:54:34.113Z,1.60
2018-06-09T01:57:02.802Z,1.77
2018-06-09T01:59:31.050Z,1.63
2018-06-09T02:01:59.658Z,1.53
2018-06-09T02:04:28.009Z,1.47
2018-06-09T02:06:56.495Z,1.60
2018-06-09T02:09:24.870Z,1.40
2018-06-09T02:11:53.155Z,1.50
2018-06-09T02:14:21.433Z,1.73
2018-06-09T02:16:49.699Z,5.70
2018-06-09T02:19:18.206Z,1.77
2018-06-09T02:21:46.540Z,1.60
2018-06-09T02:24:14.957Z,1.73
2018-06-09T02:26:43.440Z,1.30
2018-06-09T02:29:11.801Z,2.90
2018-06-09T02:31:40.092Z,1.60
2018-06-09T02:34:08.579Z,5.30
2018-06-09T02:36:37.041Z,1.97
2018-06-09T02:39:06.745Z,2.90
2018-06-09T02:41:35.153Z,3.13
2018-06-09T02:44:03.706Z,3.30
2018-06-09T02:46:31.988Z,2.30
2018-06-09T02:49:00.384Z,2.33
2018-06-09T02:51:28.864Z,1.70
2018-06-09T02:53:57.390Z,1.50
2018-06-09T02:56:25.803Z,2.27
2018-06-09T02:58:54.202Z,1.70
2018-06-09T03:01:22.578Z,1.70
2018-06-09T03:03:50.832Z,1.33
2018-06-09T03:06:19.287Z,1.43
2018-06-09T03:08:47.924Z,1.57
2018-06-09T03:11:16.279Z,1.33
2018-06-09T03:13:44.552Z,1.57
2018-06-09T03:16:12.831Z,1.60
2018-06-09T03:18:41.229Z,1.50
2018-06-09T03:21:09.560Z,1.40
2018-06-09T03:23:37.864Z,1.70
2018-06-09T03:26:06.364Z,1.50
2018-06-09T03:28:34.844Z,1.60
2018-06-09T03:31:03.303Z,1.70
2018-06-09T03:33:31.551Z,1.60
2018-06-09T03:36:00.075Z,1.70
2018-06-09T03:38:28.434Z,1.63
2018-06-09T03:40:57.147Z,1.63
2018-06-09T03:43:25.596Z,1.40
2018-06-09T03:45:53.907Z,1.77
2018-06-09T03:48:22.177Z,1.77
2018-06-09T03:50:50.856Z,1.87
2018-06-09T03:53:19.233Z,1.23
2018-06-09T03:55:47.716Z,1.47
2018-06-09T03:58:16.195Z,1.57
2018-06-09T04:00:44.784Z,3.03
2018-06-09T04:03:13.239Z,5.80
2018-06-09T04:05:41.739Z,5.93
2018-06-09T04:08:10.068Z,5.40
2018-06-09T04:10:38.481Z,4.10
2018-06-09T04:13:06.858Z,3.73
2018-06-09T04:15:35.334Z,4.43
2018-06-09T04:18:03.383Z,5.40
2018-06-09T04:20:31.809Z,4.80
2018-06-09T04:23:00.183Z,4.63
2018-06-09T04:25:28.665Z,4.30
2018-06-09T04:27:57.017Z,5.87
2018-06-09T04:30:25.322Z,5.80
2018-06-09T04:32:53.902Z,6.83
2018-06-09T04:35:22.355Z,7.47
2018-06-09T04:37:50.732Z,7.57
2018-06-09T04:40:19.048Z,8.10
2018-06-09T04:42:47.484Z,7.83
2018-06-09T04:45:15.734Z,8.63
2018-06-09T04:47:44.113Z,10.07
2018-06-09T04:50:12.404Z,10.43
2018-06-09T04:52:40.569Z,9.60
2018-06-09T04:55:08.869Z,9.23
2018-06-09T04:57:37.125Z,9.50
2018-06-09T05:00:05.393Z,9.87
2018-06-09T05:02:33.946Z,9.10
2018-06-09T05:05:02.155Z,6.57
2018-06-09T05:07:30.428Z,6.03
2018-06-09T05:09:58.727Z,3.90
2018-06-09T05:12:27.028Z,4.60
2018-06-09T05:14:55.356Z,5.10
2018-06-09T05:17:23.871Z,4.23
2018-06-09T05:19:52.383Z,3.70
2018-06-09T05:22:20.743Z,2.97
2018-06-09T05:24:49.224Z,2.80
2018-06-09T05:27:17.606Z,2.63
2018-06-09T05:29:46.084Z,2.77
2018-06-09T05:32:14.573Z,3.37
2018-06-09T05:34:43.019Z,5.53
2018-06-09T05:37:11.321Z,2.70
2018-06-09T05:39:39.596Z,2.10
2018-06-09T05:42:07.848Z,2.43
2018-06-09T05:44:36.340Z,2.57
2018-06-09T05:47:04.701Z,1.90
2018-06-09T05:49:33.274Z,2.20
2018-06-09T05:52:01.564Z,2.13
2018-06-09T05:54:29.956Z,2.10
2018-06-09T05:56:58.426Z,2.03
2018-06-09T05:59:26.620Z,2.37
2018-06-09T06:01:54.966Z,2.03
2018-06-09T06:04:23.351Z,1.90
2018-06-09T06:06:51.758Z,2.13
2018-06-09T06:09:20.239Z,2.47
2018-06-09T06:11:49.023Z,1.93
2018-06-09T06:14:19.123Z,1.67
2018-06-09T06:16:47.401Z,2.58
2018-06-09T06:19:16.901Z,2.60
2018-06-09T06:21:45.175Z,2.17
2018-06-09T06:24:13.451Z,1.90
2018-06-09T06:26:41.750Z,2.60
2018-06-09T06:29:10.084Z,2.53
2018-06-09T06:31:38.405Z,2.60
2018-06-09T06:34:06.884Z,1.93
2018-06-09T06:36:35.376Z,2.23
2018-06-09T06:39:04.741Z,2.13
2018-06-09T06:41:33.147Z,1.93
2018-06-09T06:44:01.524Z,1.93
2018-06-09T06:46:29.881Z,2.70
2018-06-09T06:48:58.484Z,2.03
2018-06-09T06:51:27.643Z,2.30
2018-06-09T06:53:55.959Z,2.07
2018-06-09T06:56:24.157Z,1.77
2018-06-09T06:58:52.409Z,1.83
2018-06-09T07:01:20.764Z,2.33
2018-06-09T07:03:49.062Z,2.20
2018-06-09T07:06:17.556Z,2.93
2018-06-09T07:08:46.024Z,2.10
2018-06-09T07:11:45.649Z,2.17
2018-06-09T07:14:13.984Z,2.10
2018-06-09T07:16:42.060Z,2.20
2018-06-09T07:19:10.465Z,2.70
2018-06-09T07:21:38.744Z,2.83
2018-06-09T07:24:07.114Z,2.43
2018-06-09T07:26:35.597Z,2.50
2018-06-09T07:29:03.989Z,2.23
2018-06-09T07:31:32.455Z,2.63
2018-06-09T07:34:00.837Z,2.40
2018-06-09T07:36:29.176Z,2.53
2018-06-09T07:38:57.564Z,1.93
2018-06-09T07:41:25.953Z,1.70
2018-06-09T07:43:54.243Z,2.20
2018-06-09T07:46:22.720Z,2.65
2018-06-09T07:48:51.185Z,2.47
2018-06-09T07:51:19.482Z,2.50
2018-06-09T07:53:47.887Z,2.17
2018-06-09T07:56:16.179Z,1.50
2018-06-09T07:58:44.588Z,2.67
2018-06-09T08:01:12.856Z,2.87
2018-06-09T08:03:41.275Z,2.37
2018-06-09T08:06:09.645Z,2.77
2018-06-09T08:08:37.890Z,3.53
2018-06-09T08:11:06.172Z,2.10
2018-06-09T08:13:34.463Z,2.50
2018-06-09T08:16:02.961Z,2.43
2018-06-09T08:18:31.436Z,3.13
2018-06-09T08:20:59.762Z,3.20
2018-06-09T08:23:28.289Z,3.23
2018-06-09T08:25:56.878Z,2.47
2018-06-09T08:28:25.211Z,2.47
2018-06-09T08:30:53.635Z,2.50
2018-06-09T08:33:21.971Z,2.83
2018-06-09T08:35:50.385Z,2.83
2018-06-09T08:38:18.649Z,2.93
2018-06-09T08:40:46.941Z,2.50
2018-06-09T08:43:15.410Z,2.53
2018-06-09T08:45:43.645Z,2.30
2018-06-09T08:48:12.046Z,3.20
2018-06-09T08:50:40.456Z,3.20
2018-06-09T08:53:08.845Z,2.57
2018-06-09T08:55:37.639Z,3.00
2018-06-09T08:58:07.020Z,2.80
2018-06-09T09:00:35.825Z,3.13
2018-06-09T09:03:07.622Z,2.77
2018-06-09T09:05:36.832Z,3.17
2018-06-09T09:08:06.188Z,2.50
2018-06-09T09:10:39.172Z,2.80
2018-06-09T09:13:08.835Z,5.70
2018-06-09T09:15:37.856Z,2.53
2018-06-09T09:18:06.539Z,2.53
2018-06-09T09:20:36.153Z,2.40
2018-06-09T09:23:04.724Z,2.67
2018-06-09T09:25:33.106Z,2.80
2018-06-09T09:28:02.100Z,3.23
2018-06-09T09:30:31.583Z,2.83
2018-06-09T09:32:59.980Z,2.40
2018-06-09T09:35:28.462Z,2.50
2018-06-09T09:37:57.456Z,2.53
2018-06-09T09:40:25.807Z,2.43
2018-06-09T09:42:54.094Z,2.33
2018-06-09T09:45:22.376Z,2.03
2018-06-09T09:47:50.967Z,2.07
2018-06-09T09:50:19.300Z,1.80
2018-06-09T09:52:47.595Z,2.33
2018-06-09T09:55:16.075Z,2.50
2018-06-09T09:57:49.559Z,2.67
2018-06-09T10:00:22.755Z,2.63
2018-06-09T10:02:50.925Z,2.97
2018-06-09T10:05:19.207Z,3.00
2018-06-09T10:07:47.595Z,2.50
2018-06-09T10:10:15.979Z,2.30
2018-06-09T10:12:44.272Z,2.50
2018-06-09T10:15:12.544Z,1.80
2018-06-09T10:17:41.020Z,2.40
2018-06-09T10:20:09.407Z,2.13
2018-06-09T10:22:37.919Z,2.40
2018-06-09T10:25:06.339Z,2.30
2018-06-09T10:27:34.516Z,2.00
2018-06-09T10:30:02.814Z,2.00
2018-06-09T10:32:31.275Z,2.33
2018-06-09T10:34:59.570Z,1.70
2018-06-09T10:37:27.949Z,2.57
2018-06-09T10:39:56.200Z,2.43
2018-06-09T10:42:24.687Z,2.20
2018-06-09T10:44:52.953Z,2.63
2018-06-09T10:47:21.256Z,2.50
2018-06-09T10:49:49.718Z,1.93
2018-06-09T10:52:18.079Z,2.43
2018-06-09T10:54:46.492Z,2.23
2018-06-09T10:57:14.630Z,2.50
2018-06-09T10:59:42.818Z,2.13
2018-06-09T11:02:11.205Z,1.80
2018-06-09T11:04:39.406Z,2.03
2018-06-09T11:07:07.876Z,2.43
2018-06-09T11:09:36.236Z,2.03
2018-06-09T11:12:04.512Z,2.80
2018-06-09T11:14:32.800Z,2.00
2018-06-09T11:17:01.267Z,2.67
2018-06-09T11:19:29.545Z,3.00
2018-06-09T11:21:58.006Z,2.37
2018-06-09T11:24:26.423Z,2.20
2018-06-09T11:26:54.750Z,2.33
2018-06-09T11:29:23.162Z,2.10
2018-06-09T11:31:51.622Z,2.23
2018-06-09T11:34:22.074Z,2.40
2018-06-09T11:36:50.461Z,2.80
2018-06-09T11:39:18.836Z,2.87
2018-06-09T11:41:47.321Z,2.00
2018-06-09T11:44:16.090Z,2.50
2018-06-09T11:46:44.794Z,1.60
2018-06-09T11:49:13.146Z,2.10
2018-06-09T11:51:41.656Z,2.13
2018-06-09T11:54:10.039Z,2.47
2018-06-09T11:56:38.785Z,3.07
2018-06-09T11:59:07.690Z,2.40
2018-06-09T12:01:35.981Z,2.20
2018-06-09T12:04:04.575Z,2.20
2018-06-09T12:06:33.418Z,2.13
2018-06-09T12:09:01.603Z,2.47
2018-06-09T12:11:30.006Z,2.00
2018-06-09T12:13:58.998Z,3.17
2018-06-09T12:16:27.447Z,2.10
2018-06-09T12:18:55.699Z,2.67
2018-06-09T12:21:24.136Z,2.60
2018-06-09T12:23:52.611Z,2.10
2018-06-09T12:26:20.886Z,2.50
2018-06-09T12:28:49.338Z,2.97
2018-06-09T12:31:17.590Z,2.50
2018-06-09T12:33:45.919Z,3.03
2018-06-09T12:36:15.166Z,2.80
2018-06-09T12:38:43.352Z,3.00
2018-06-09T12:41:11.634Z,2.43
2018-06-09T12:43:39.786Z,2.87
2018-06-09T12:46:07.979Z,2.40
2018-06-09T12:48:36.411Z,2.73
2018-06-09T12:51:04.775Z,2.47
2018-06-09T12:53:35.155Z,2.07
2018-06-09T12:56:03.476Z,2.30
2018-06-09T12:58:31.854Z,2.50
2018-06-09T13:01:00.846Z,2.43
2018-06-09T13:03:29.425Z,2.17
2018-06-09T13:05:57.707Z,2.27
2018-06-09T13:08:26.507Z,2.10
2018-06-09T13:10:54.957Z,2.47
2018-06-09T13:13:23.545Z,2.77
2018-06-09T13:15:51.919Z,2.67
2018-06-09T13:18:20.415Z,2.57
2018-06-09T13:20:48.635Z,3.47
2018-06-09T13:23:17.065Z,2.80
2018-06-09T13:25:45.553Z,2.30
2018-06-09T13:28:14.048Z,2.60
2018-06-09T13:30:42.155Z,2.80
2018-06-09T13:33:10.687Z,2.50
2018-06-09T13:35:39.040Z,2.30
2018-06-09T13:38:07.313Z,3.50
2018-06-09T13:40:35.698Z,2.53
2018-06-09T13:43:04.206Z,2.63
2018-06-09T13:45:32.420Z,2.53
2018-06-09T13:48:00.694Z,2.63
2018-06-09T13:50:28.984Z,2.73
2018-06-09T13:52:57.283Z,2.93
2018-06-09T13:55:25.652Z,2.00
2018-06-09T13:57:53.911Z,2.53
2018-06-09T14:00:22.228Z,2.50
2018-06-09T14:02:50.538Z,2.17
2018-06-09T14:05:18.881Z,2.60
2018-06-09T14:07:47.338Z,2.40
2018-06-09T14:10:15.727Z,2.57
2018-06-09T14:12:44.119Z,2.80
2018-06-09T14:15:12.597Z,2.70
2018-06-09T14:17:40.917Z,2.40
2018-06-09T14:20:09.460Z,2.77
2018-06-09T14:22:37.820Z,2.10
2018-06-09T14:25:06.110Z,2.33
2018-06-09T14:27:34.677Z,2.80
2018-06-09T14:30:03.181Z,2.75
2018-06-09T14:32:31.536Z,2.83
2018-06-09T14:35:00.956Z,2.90
2018-06-09T14:37:29.360Z,2.70
2018-06-09T14:39:57.819Z,2.60
2018-06-09T14:42:26.383Z,3.03
2018-06-09T14:44:54.776Z,2.73
2018-06-09T14:47:23.155Z,2.83
2018-06-09T14:49:51.536Z,2.90
2018-06-09T14:52:20.022Z,2.37
2018-06-09T14:54:48.967Z,2.73
2018-06-09T14:57:17.379Z,3.10
2018-06-09T14:59:45.657Z,2.77
2018-06-09T15:02:14.013Z,3.20
2018-06-09T15:04:42.310Z,2.60
2018-06-09T15:07:10.793Z,4.10
2018-06-09T15:09:39.361Z,3.40
2018-06-09T15:12:07.654Z,3.03
2018-06-09T15:14:36.031Z,2.87
2018-06-09T15:17:04.304Z,3.00
2018-06-09T15:19:32.493Z,3.20
2018-06-09T15:22:00.859Z,2.70
2018-06-09T15:24:29.337Z,2.80
2018-06-09T15:26:57.651Z,3.47
2018-06-09T15:29:26.114Z,2.73
2018-06-09T15:31:54.778Z,2.57
2018-06-09T15:34:23.115Z,2.87
2018-06-09T15:36:51.576Z,3.00
2018-06-09T15:39:19.780Z,2.50
2018-06-09T15:41:48.189Z,2.77
2018-06-09T15:44:16.418Z,2.60
2018-06-09T15:46:44.947Z,2.80
2018-06-09T15:49:13.424Z,2.60
2018-06-09T15:51:41.588Z,2.63
2018-06-09T15:54:09.823Z,2.50
2018-06-09T15:56:38.251Z,2.90
2018-06-09T15:59:06.503Z,2.57
2018-06-09T16:01:34.789Z,2.43
2018-06-09T16:04:03.122Z,2.30
2018-06-09T16:06:31.259Z,2.63
2018-06-09T16:08:59.713Z,2.53
2018-06-09T16:11:27.976Z,2.70
2018-06-09T16:13:56.249Z,2.63
2018-06-09T16:16:24.561Z,2.93
2018-06-09T16:18:52.954Z,3.30
2018-06-09T16:21:21.285Z,2.27
2018-06-09T16:23:49.555Z,3.00
2018-06-09T16:26:17.976Z,2.73
2018-06-09T16:28:46.293Z,2.93
2018-06-09T16:31:14.818Z,3.87
2018-06-09T16:33:43.106Z,2.93
2018-06-09T16:36:11.559Z,2.83
2018-06-09T16:38:40.067Z,5.57
2018-06-09T16:41:08.407Z,6.50
2018-06-09T16:43:36.758Z,3.73
2018-06-09T16:46:05.105Z,3.80
2018-06-09T16:48:33.564Z,3.87
2018-06-09T16:51:01.961Z,3.47
2018-06-09T16:53:30.340Z,2.90
2018-06-09T16:55:58.798Z,4.37
2018-06-09T16:58:27.074Z,2.80
2018-06-09T17:00:55.590Z,3.42
2018-06-09T17:03:24.027Z,2.90
2018-06-09T17:05:52.432Z,2.77
2018-06-09T17:08:21.021Z,3.37
2018-06-09T17:10:49.496Z,3.63
2018-06-09T17:13:18.082Z,3.10
2018-06-09T17:15:46.360Z,3.23
2018-06-09T17:18:14.732Z,3.30
2018-06-09T17:20:43.219Z,3.20
2018-06-09T17:23:11.779Z,3.10
2018-06-09T17:25:40.282Z,2.90
2018-06-09T17:28:08.969Z,2.50
2018-06-09T17:30:37.199Z,2.73
2018-06-09T17:33:05.605Z,2.97
2018-06-09T17:35:34.076Z,3.30
2018-06-09T17:38:02.323Z,3.37
2018-06-09T17:40:30.989Z,2.87
2018-06-09T17:42:59.439Z,3.37
2018-06-09T17:45:28.022Z,3.80
2018-06-09T17:47:56.604Z,3.87
2018-06-09T17:50:24.959Z,3.30
2018-06-09T17:52:53.464Z,3.50
2018-06-09T17:55:22.046Z,3.70
2018-06-09T17:57:50.399Z,3.50
2018-06-09T18:00:18.678Z,3.30
2018-06-09T18:02:53.854Z,3.60
2018-06-09T18:05:22.604Z,3.37
2018-06-09T18:07:51.211Z,3.70
2018-06-09T18:10:19.566Z,3.37
2018-06-09T18:12:48.021Z,3.43
2018-06-09T18:15:16.641Z,3.93
2018-06-09T18:17:45.016Z,4.03
2018-06-09T18:20:13.451Z,4.20
2018-06-09T18:22:41.944Z,4.50
2018-06-09T18:25:10.418Z,5.20
2018-06-09T18:27:38.789Z,5.80
2018-06-09T18:30:07.537Z,5.70
2018-06-09T18:32:35.947Z,5.70
2018-06-09T18:35:04.309Z,5.57
2018-06-09T18:37:33.048Z,4.73
2018-06-09T18:40:01.803Z,3.63
2018-06-09T18:42:30.470Z,3.63
2018-06-09T18:44:59.458Z,3.23
2018-06-09T18:47:28.013Z,3.37
2018-06-09T18:49:56.704Z,3.80
2018-06-09T18:52:25.300Z,4.73
2018-06-09T18:54:54.011Z,3.80
2018-06-09T18:57:22.331Z,3.30
2018-06-09T18:59:50.611Z,3.77
2018-06-09T19:02:18.879Z,4.42
2018-06-09T19:04:47.337Z,4.63
2018-06-09T19:07:15.635Z,6.97
2018-06-09T19:09:43.965Z,6.23
2018-06-09T19:12:12.840Z,5.50
2018-06-09T19:14:41.285Z,7.27
2018-06-09T19:17:09.715Z,6.57
2018-06-09T19:19:40.729Z,5.23
2018-06-09T19:22:09.269Z,4.07
2018-06-09T19:24:37.581Z,4.83
2018-06-09T19:27:06.919Z,4.67
2018-06-09T19:29:36.516Z,4.57
2018-06-09T19:32:08.613Z,5.13
2018-06-09T19:34:36.817Z,5.50
2018-06-09T19:37:05.317Z,5.73
2018-06-09T19:39:35.121Z,6.00
2018-06-09T19:42:03.681Z,5.30
2018-06-09T19:44:32.233Z,5.40
2018-06-09T19:47:00.869Z,5.30
2018-06-09T19:49:29.303Z,5.13
2018-06-09T19:51:58.629Z,6.17
2018-06-09T19:54:27.779Z,5.83
2018-06-09T19:56:56.261Z,5.53
2018-06-09T19:59:28.654Z,6.03
2018-06-09T20:02:00.704Z,9.57
2018-06-09T20:04:30.090Z,8.43
2018-06-09T20:06:58.538Z,6.90
2018-06-09T20:09:33.367Z,7.00
2018-06-09T20:12:02.779Z,7.23
2018-06-09T20:14:31.258Z,6.83
2018-06-09T20:16:59.619Z,6.47
2018-06-09T20:19:28.630Z,4.87
2018-06-09T20:21:57.889Z,5.00
2018-06-09T20:24:26.604Z,5.30
2018-06-09T20:26:55.079Z,4.60
2018-06-09T20:29:23.560Z,5.00
2018-06-09T20:31:55.293Z,4.47
2018-06-09T20:34:26.555Z,5.13
2018-06-09T20:36:56.679Z,4.37
2018-06-09T20:39:25.840Z,5.10
2018-06-09T20:41:54.998Z,4.20
2018-06-09T20:44:24.028Z,4.37
2018-06-09T20:46:53.737Z,4.67
2018-06-09T20:49:23.677Z,4.47
2018-06-09T20:51:52.270Z,4.23
2018-06-09T20:54:20.558Z,3.70
2018-06-09T20:56:49.234Z,3.97
2018-06-09T20:59:17.568Z,4.10
2018-06-09T21:01:46.113Z,4.50
2018-06-09T21:04:14.419Z,4.10
2018-06-09T21:06:42.822Z,4.40
2018-06-09T21:09:11.149Z,4.27
2018-06-09T21:11:39.659Z,4.07
2018-06-09T21:14:08.309Z,3.97
2018-06-09T21:16:36.859Z,4.53
2018-06-09T21:19:05.331Z,4.00
2018-06-09T21:21:33.580Z,3.43
2018-06-09T21:24:01.805Z,3.70
2018-06-09T21:26:35.576Z,3.60
2018-06-09T21:29:08.214Z,3.77
2018-06-09T21:31:40.995Z,3.80
2018-06-09T21:34:14.842Z,3.80
2018-06-09T21:36:48.421Z,3.50
2018-06-09T21:39:22.046Z,3.50
2018-06-09T21:41:55.674Z,4.00
2018-06-09T21:44:29.279Z,3.20
2018-06-09T21:46:57.667Z,3.73
2018-06-09T21:49:26.136Z,3.60
2018-06-09T21:51:55.056Z,3.47
2018-06-09T21:54:23.378Z,3.13
2018-06-09T21:56:51.972Z,3.63
2018-06-09T21:59:20.370Z,3.13
2018-06-09T22:01:49.081Z,3.40
2018-06-09T22:04:17.623Z,2.80
2018-06-09T22:06:46.031Z,3.57
2018-06-09T22:09:14.505Z,3.17
2018-06-09T22:11:43.077Z,2.87
2018-06-09T22:14:11.558Z,2.80
2018-06-09T22:16:40.098Z,7.13
2018-06-09T22:19:08.497Z,4.00
2018-06-09T22:21:36.896Z,2.83
2018-06-09T22:24:05.393Z,2.90
2018-06-09T22:26:33.755Z,3.40
2018-06-09T22:29:02.345Z,3.33
2018-06-09T22:31:30.831Z,3.73
2018-06-09T22:33:59.537Z,3.23
2018-06-09T22:36:27.916Z,3.03
2018-06-09T22:38:56.502Z,3.00
2018-06-09T22:41:24.977Z,3.37
2018-06-09T22:43:53.422Z,2.90
2018-06-09T22:46:21.711Z,5.00
2018-06-09T22:48:50.317Z,3.40
2018-06-09T22:51:18.594Z,3.43
2018-06-09T22:53:47.159Z,3.53
2018-06-09T22:56:15.712Z,3.47
2018-06-09T22:58:43.962Z,3.10
2018-06-09T23:01:12.512Z,3.50
2018-06-09T23:03:40.988Z,3.23
2018-06-09T23:06:09.473Z,3.73
2018-06-09T23:08:37.870Z,3.43
2018-06-09T23:11:06.619Z,4.13
2018-06-09T23:13:35.234Z,3.83
2018-06-09T23:16:03.976Z,3.83
2018-06-09T23:18:32.564Z,3.67
2018-06-09T23:21:00.984Z,3.10
2018-06-09T23:23:29.568Z,3.60
2018-06-09T23:25:58.318Z,3.60
2018-06-09T23:28:27.009Z,3.70
2018-06-09T23:30:55.911Z,5.83
2018-06-09T23:33:24.590Z,3.67
2018-06-09T23:35:53.167Z,3.77
2018-06-09T23:38:21.748Z,3.43
2018-06-09T23:40:50.347Z,4.37
2018-06-09T23:43:18.708Z,4.37
2018-06-09T23:45:47.251Z,3.10
2018-06-09T23:48:15.912Z,3.07
2018-06-09T23:50:44.255Z,2.70
2018-06-09T23:53:12.670Z,3.23
2018-06-09T23:55:40.980Z,2.77
2018-06-09T23:58:09.429Z,3.07
